GAF5401 EDXW-EDDB
Flight info
| Callsign | GAF5401 |
|---|---|
| Flight time | N/A |
| Altitude | 23000 |
| Route | OLDIP1A OLDIP DCT PIZID/N0360F310 DCT EKERN M852 AMLUH L619 VIBIS T209 OGBER OGBER1R |
| Aircraft | A400/H-SDE2E3FGHIJ4J5M1RWXY/LB1D1 |
Departure
| Time | 2026-04-20 17:25 |
|---|---|
| Airport | Westerland Sylt Airport (EDXW) |
Arrival
| Time | N/A |
|---|---|
| Airport | Berlin Brandenburg Airport (EDDB) |
| Time | Latitude | Longitude | Altitude | Speed | Heading |
|---|---|---|---|---|---|
| 2026-04-20 17:08 | 54.92024 | 8.33885 | 53 ft | 0 kts | 86° |
| 2026-04-20 17:23 | 54.92025 | 8.33889 | 52 ft | 1 kts | 75° |
| 2026-04-20 17:24 | 54.92036 | 8.33887 | 49 ft | 2 kts | 344° |
| 2026-04-20 17:24 | 54.92025 | 8.33830 | 52 ft | 12 kts | 241° |
| 2026-04-20 17:24 | 54.91970 | 8.33656 | 50 ft | 19 kts | 244° |
| 2026-04-20 17:24 | 54.91951 | 8.33423 | 50 ft | 20 kts | 267° |
| 2026-04-20 17:25 | 54.91877 | 8.33368 | 49 ft | 13 kts | 146° |
| 2026-04-20 17:25 | 54.91639 | 8.33670 | 52 ft | 86 kts | 145° |
| 2026-04-20 17:25 | 54.90904 | 8.34559 | 156 ft | 159 kts | 139° |
| 2026-04-20 17:25 | 54.89924 | 8.35764 | 661 ft | 179 kts | 139° |
| 2026-04-20 17:26 | 54.88910 | 8.37027 | 1545 ft | 188 kts | 139° |
| 2026-04-20 17:26 | 54.87757 | 8.38484 | 2038 ft | 221 kts | 139° |
| 2026-04-20 17:26 | 54.86445 | 8.40125 | 2662 ft | 240 kts | 139° |
| 2026-04-20 17:26 | 54.85061 | 8.41832 | 3413 ft | 247 kts | 139° |
| 2026-04-20 17:27 | 54.83709 | 8.43491 | 3927 ft | 247 kts | 139° |
| 2026-04-20 17:27 | 54.82778 | 8.44634 | 4429 ft | 250 kts | 139° |
| 2026-04-20 17:27 | 54.81397 | 8.46327 | 5610 ft | 243 kts | 139° |
| 2026-04-20 17:27 | 54.80015 | 8.48023 | 6702 ft | 245 kts | 140° |
| 2026-04-20 17:28 | 54.78603 | 8.49762 | 7617 ft | 252 kts | 140° |
| 2026-04-20 17:28 | 54.77157 | 8.51543 | 8519 ft | 259 kts | 140° |
| 2026-04-20 17:28 | 54.75675 | 8.53366 | 9461 ft | 264 kts | 140° |
| 2026-04-20 17:28 | 54.74166 | 8.55217 | 10409 ft | 269 kts | 140° |
| 2026-04-20 17:29 | 54.72625 | 8.57106 | 11306 ft | 273 kts | 140° |
| 2026-04-20 17:29 | 54.71061 | 8.59022 | 12202 ft | 278 kts | 140° |
| 2026-04-20 17:29 | 54.69451 | 8.60992 | 13121 ft | 283 kts | 141° |
| 2026-04-20 17:29 | 54.67850 | 8.62949 | 14015 ft | 288 kts | 141° |
| 2026-04-20 17:30 | 54.66180 | 8.64988 | 14856 ft | 293 kts | 141° |
| 2026-04-20 17:30 | 54.64537 | 8.67030 | 15624 ft | 299 kts | 137° |
| 2026-04-20 17:30 | 54.62910 | 8.69430 | 15982 ft | 317 kts | 135° |
| 2026-04-20 17:30 | 54.61237 | 8.72065 | 16262 ft | 333 kts | 133° |
| 2026-04-20 17:31 | 54.59531 | 8.74857 | 16651 ft | 342 kts | 133° |
| 2026-04-20 17:31 | 54.57806 | 8.77729 | 17151 ft | 347 kts | 132° |
| 2026-04-20 17:31 | 54.56069 | 8.80636 | 17685 ft | 351 kts | 132° |
| 2026-04-20 17:31 | 54.54309 | 8.83581 | 18216 ft | 354 kts | 132° |
| 2026-04-20 17:32 | 54.52528 | 8.86551 | 18714 ft | 358 kts | 132° |
| 2026-04-20 17:32 | 54.50731 | 8.89537 | 19205 ft | 361 kts | 133° |
| 2026-04-20 17:32 | 54.48914 | 8.92546 | 19703 ft | 363 kts | 133° |
| 2026-04-20 17:32 | 54.47088 | 8.95562 | 20197 ft | 365 kts | 133° |
| 2026-04-20 17:33 | 54.45247 | 8.98598 | 20686 ft | 368 kts | 133° |
| 2026-04-20 17:33 | 54.43397 | 9.01643 | 21186 ft | 370 kts | 133° |
| 2026-04-20 17:33 | 54.41530 | 9.04712 | 21677 ft | 372 kts | 133° |
| 2026-04-20 17:33 | 54.39655 | 9.07791 | 22159 ft | 375 kts | 133° |
| 2026-04-20 17:34 | 54.37766 | 9.10890 | 22622 ft | 377 kts | 133° |
| 2026-04-20 17:34 | 54.35864 | 9.14005 | 23080 ft | 379 kts | 133° |
| 2026-04-20 17:34 | 54.34599 | 9.16075 | 23250 ft | 381 kts | 133° |
| 2026-04-20 17:34 | 54.32680 | 9.19211 | 23285 ft | 382 kts | 133° |
| 2026-04-20 17:35 | 54.30125 | 9.23379 | 23285 ft | 382 kts | 133° |
| 2026-04-20 17:35 | 54.28201 | 9.26512 | 23286 ft | 382 kts | 133° |
| 2026-04-20 17:35 | 54.26274 | 9.29646 | 23287 ft | 382 kts | 133° |
| 2026-04-20 17:35 | 54.24350 | 9.32772 | 23287 ft | 382 kts | 133° |
| 2026-04-20 17:36 | 54.22424 | 9.35897 | 23288 ft | 382 kts | 133° |
| 2026-04-20 17:36 | 54.21208 | 9.37868 | 23286 ft | 382 kts | 133° |
| 2026-04-20 17:36 | 54.19279 | 9.40993 | 23284 ft | 382 kts | 133° |
| 2026-04-20 17:36 | 54.17350 | 9.44112 | 23284 ft | 382 kts | 133° |
| 2026-04-20 17:37 | 54.15482 | 9.47330 | 23285 ft | 380 kts | 128° |
| 2026-04-20 17:37 | 54.13994 | 9.50325 | 23279 ft | 380 kts | 126° |
| 2026-04-20 17:37 | 54.12446 | 9.53609 | 23278 ft | 379 kts | 125° |
| 2026-04-20 17:37 | 54.10855 | 9.57116 | 23274 ft | 379 kts | 124° |
| 2026-04-20 17:38 | 54.09241 | 9.60746 | 23270 ft | 379 kts | 124° |
| 2026-04-20 17:38 | 54.07678 | 9.64285 | 23270 ft | 379 kts | 124° |
| 2026-04-20 17:38 | 54.06094 | 9.67870 | 23263 ft | 379 kts | 124° |
| 2026-04-20 17:38 | 54.04505 | 9.71454 | 23255 ft | 379 kts | 124° |
| 2026-04-20 17:39 | 54.02995 | 9.74844 | 23255 ft | 379 kts | 124° |
| 2026-04-20 17:39 | 54.01395 | 9.78422 | 23247 ft | 379 kts | 124° |
| 2026-04-20 17:39 | 53.99797 | 9.81985 | 23245 ft | 379 kts | 124° |
| 2026-04-20 17:39 | 53.98195 | 9.85547 | 23234 ft | 379 kts | 124° |
| 2026-04-20 17:40 | 53.96592 | 9.89105 | 23239 ft | 379 kts | 124° |
| 2026-04-20 17:40 | 53.94988 | 9.92662 | 23237 ft | 379 kts | 124° |
| 2026-04-20 17:40 | 53.93381 | 9.96218 | 23239 ft | 379 kts | 124° |
| 2026-04-20 17:40 | 53.91776 | 9.99767 | 23234 ft | 379 kts | 124° |
| 2026-04-20 17:41 | 53.90168 | 10.03318 | 23235 ft | 379 kts | 124° |
| 2026-04-20 17:41 | 53.88558 | 10.06867 | 23237 ft | 379 kts | 124° |
| 2026-04-20 17:41 | 53.86951 | 10.10407 | 23231 ft | 379 kts | 124° |
| 2026-04-20 17:41 | 53.85337 | 10.13955 | 23231 ft | 380 kts | 124° |
| 2026-04-20 17:42 | 53.83725 | 10.17495 | 23231 ft | 380 kts | 124° |
| 2026-04-20 17:42 | 53.82113 | 10.21030 | 23231 ft | 380 kts | 124° |
| 2026-04-20 17:42 | 53.80496 | 10.24570 | 23233 ft | 380 kts | 124° |
| 2026-04-20 17:42 | 53.78877 | 10.28109 | 23223 ft | 380 kts | 124° |
| 2026-04-20 17:43 | 53.77263 | 10.31635 | 23230 ft | 380 kts | 124° |
| 2026-04-20 17:43 | 53.75642 | 10.35169 | 23226 ft | 380 kts | 124° |
| 2026-04-20 17:43 | 53.74019 | 10.38702 | 23226 ft | 381 kts | 124° |
| 2026-04-20 17:43 | 53.72396 | 10.42231 | 23228 ft | 381 kts | 124° |
| 2026-04-20 17:44 | 53.70769 | 10.45763 | 23231 ft | 381 kts | 124° |
| 2026-04-20 17:44 | 53.69142 | 10.49289 | 23228 ft | 381 kts | 125° |
| 2026-04-20 17:44 | 53.67535 | 10.52769 | 23228 ft | 381 kts | 125° |
| 2026-04-20 17:44 | 53.65903 | 10.56297 | 23224 ft | 381 kts | 125° |
| 2026-04-20 17:45 | 53.64272 | 10.59818 | 23224 ft | 382 kts | 125° |
| 2026-04-20 17:45 | 53.62634 | 10.63349 | 23223 ft | 382 kts | 125° |